createdAt,value
2018-02-19T00:01:14.228Z,101873.08
2018-02-19T00:03:42.595Z,101870.52
2018-02-19T00:06:10.957Z,101869.34
2018-02-19T00:08:39.724Z,101875.95
2018-02-19T00:11:08.082Z,101872.98
2018-02-19T00:13:36.456Z,101866.41
2018-02-19T00:16:04.812Z,101871.77
2018-02-19T00:18:33.216Z,101871.55
2018-02-19T00:21:01.588Z,101871.38
2018-02-19T00:23:30.002Z,101869.77
2018-02-19T00:25:58.359Z,101868.70
2018-02-19T00:28:26.732Z,101868.25
2018-02-19T00:30:55.102Z,101868.13
2018-02-19T00:33:23.499Z,101868.09
2018-02-19T00:35:51.875Z,101859.98
2018-02-19T00:38:20.261Z,101857.91
2018-02-19T00:40:48.625Z,101857.59
2018-02-19T00:43:16.997Z,101860.69
2018-02-19T00:45:45.409Z,101849.88
2018-02-19T00:48:13.820Z,101849.41
2018-02-19T00:50:42.188Z,101849.53
2018-02-19T00:53:10.947Z,101845.61
2018-02-19T00:55:39.302Z,101852.16
2018-02-19T00:58:07.678Z,101849.38
2018-02-19T01:00:36.053Z,101842.02
2018-02-19T01:03:04.425Z,101847.67
2018-02-19T01:05:32.780Z,101845.80
2018-02-19T01:08:01.159Z,101845.11
2018-02-19T01:10:29.520Z,101842.00
2018-02-19T01:12:58.293Z,101842.14
2018-02-19T01:15:26.652Z,101831.30
2018-02-19T01:17:55.025Z,101836.08
2018-02-19T01:20:23.392Z,101831.27
2018-02-19T01:22:51.765Z,101827.23
2018-02-19T01:25:20.121Z,101826.11
2018-02-19T01:27:48.481Z,101819.75
2018-02-19T01:30:17.265Z,101819.10
2018-02-19T01:32:46.035Z,101815.75
2018-02-19T01:35:14.493Z,101817.05
2018-02-19T01:37:42.860Z,101811.95
2018-02-19T01:40:11.251Z,101810.58
2018-02-19T01:42:40.249Z,101805.20
2018-02-19T01:45:08.645Z,101797.28
2018-02-19T01:47:37.045Z,101801.01
2018-02-19T01:50:16.695Z,101794.62
2018-02-19T01:52:45.508Z,101788.77
2018-02-19T01:55:13.885Z,101784.26
2018-02-19T01:57:42.288Z,101782.92
2018-02-19T02:00:10.669Z,101786.08
2018-02-19T02:02:39.040Z,101774.36
2018-02-19T02:05:07.405Z,101770.12
2018-02-19T02:07:35.761Z,101760.99
2018-02-19T02:10:04.114Z,101759.02
2018-02-19T02:12:32.929Z,101754.91
2018-02-19T02:15:01.323Z,101752.98
2018-02-19T02:20:04.426Z,101741.92
2018-02-19T02:22:32.788Z,101747.49
2018-02-19T02:25:01.537Z,101739.42
2018-02-19T02:27:29.940Z,101737.01
2018-02-19T02:29:58.360Z,101741.89
2018-02-19T02:32:26.701Z,101738.09
2018-02-19T02:34:55.477Z,101736.87
2018-02-19T02:37:23.816Z,101735.19
2018-02-19T02:39:52.177Z,101735.70
2018-02-19T02:42:20.555Z,101727.94
2018-02-19T02:44:48.913Z,101726.65
2018-02-19T02:47:17.678Z,101722.78
2018-02-19T02:49:46.061Z,101730.84
2018-02-19T02:52:14.409Z,101717.16
2018-02-19T02:54:42.776Z,101732.22
2018-02-19T02:57:11.150Z,101722.76
2018-02-19T02:59:39.517Z,101719.00
2018-02-19T03:02:08.010Z,101720.15
2018-02-19T03:04:36.408Z,101709.98
2018-02-19T03:07:04.784Z,101718.98
2018-02-19T03:09:33.129Z,101714.83
2018-02-19T03:12:01.504Z,101701.51
2018-02-19T03:14:29.868Z,101695.63
2018-02-19T03:16:58.633Z,101690.81
2018-02-19T03:19:27.417Z,101701.52
2018-02-19T03:21:55.773Z,101694.59
2018-02-19T03:24:24.166Z,101688.79
2018-02-19T03:26:53.421Z,101688.49
2018-02-19T03:29:21.832Z,101694.09
2018-02-19T03:31:50.220Z,101681.08
2018-02-19T03:34:18.576Z,101687.77
2018-02-19T03:36:46.960Z,101678.31
2018-02-19T03:39:15.325Z,101672.95
2018-02-19T03:41:43.679Z,101674.68
2018-02-19T03:44:12.046Z,101673.72
2018-02-19T03:46:40.822Z,101669.70
2018-02-19T03:49:09.580Z,101668.52
2018-02-19T03:51:37.940Z,101668.41
2018-02-19T03:54:06.315Z,101665.95
2018-02-19T03:56:34.707Z,101669.27
2018-02-19T03:59:03.065Z,101663.53
2018-02-19T04:01:31.443Z,101662.16
2018-02-19T04:03:59.801Z,101661.60
2018-02-19T04:06:28.586Z,101670.94
2018-02-19T04:08:57.367Z,101667.89
2018-02-19T04:11:25.811Z,101663.63
2018-02-19T04:13:54.225Z,101660.58
2018-02-19T04:16:22.567Z,101656.91
2018-02-19T04:18:59.497Z,101658.23
2018-02-19T04:21:27.924Z,101647.13
2018-02-19T04:23:56.303Z,101649.72
2018-02-19T04:26:24.680Z,101651.03
2018-02-19T04:28:53.159Z,101640.81
2018-02-19T04:31:21.514Z,101638.70
2018-02-19T04:33:49.880Z,101640.22
2018-02-19T04:36:18.249Z,101639.77
2018-02-19T04:38:47.028Z,101638.84
2018-02-19T04:41:16.073Z,101635.28
2018-02-19T04:43:44.438Z,101633.77
2018-02-19T04:46:12.982Z,101633.02
2018-02-19T04:48:41.746Z,101635.73
2018-02-19T04:51:10.216Z,101632.34
2018-02-19T04:53:39.529Z,101628.41
2018-02-19T04:56:07.893Z,101625.89
2018-02-19T04:58:36.497Z,101627.61
2018-02-19T05:01:04.869Z,101629.81
2018-02-19T05:03:33.232Z,101637.38
2018-02-19T05:06:01.611Z,101623.23
2018-02-19T05:08:29.990Z,101619.79
2018-02-19T05:10:58.370Z,101623.23
2018-02-19T05:13:26.744Z,101629.02
2018-02-19T05:15:55.231Z,101617.19
2018-02-19T05:18:23.610Z,101622.55
2018-02-19T05:20:51.980Z,101625.81
2018-02-19T05:23:20.477Z,101627.66
2018-02-19T05:25:48.840Z,101628.53
2018-02-19T05:28:17.203Z,101628.17
2018-02-19T05:30:45.584Z,101627.20
2018-02-19T05:33:13.961Z,101618.53
2018-02-19T05:35:42.308Z,101624.70
2018-02-19T05:38:11.152Z,101623.27
2018-02-19T05:40:39.574Z,101626.42
2018-02-19T05:43:08.415Z,101624.78
2018-02-19T05:45:36.936Z,101618.72
2018-02-19T05:48:05.692Z,101621.34
2018-02-19T05:50:34.213Z,101623.23
2018-02-19T05:53:03.056Z,101618.63
2018-02-19T05:55:31.438Z,101619.83
2018-02-19T05:57:59.811Z,101633.11
2018-02-19T06:00:28.204Z,101628.50
2018-02-19T06:02:56.574Z,101624.16
2018-02-19T06:05:25.954Z,101627.34
2018-02-19T06:07:54.350Z,101620.38
2018-02-19T06:10:22.708Z,101615.12
2018-02-19T06:12:51.076Z,101616.79
2018-02-19T06:15:19.507Z,101608.91
2018-02-19T06:17:47.867Z,101613.46
2018-02-19T06:20:16.245Z,101615.56
2018-02-19T06:22:44.671Z,101616.52
2018-02-19T06:25:13.524Z,101614.98
2018-02-19T06:27:41.998Z,101615.20
2018-02-19T06:30:10.380Z,101611.83
2018-02-19T06:32:38.752Z,101614.90
2018-02-19T06:35:07.213Z,101611.36
2018-02-19T06:37:35.568Z,101613.94
2018-02-19T06:40:04.421Z,101614.19
2018-02-19T06:42:32.895Z,101610.52
2018-02-19T06:45:01.257Z,101609.23
2018-02-19T06:47:29.655Z,101598.45
2018-02-19T06:49:58.020Z,101607.27
2018-02-19T06:52:26.506Z,101613.28
2018-02-19T06:54:54.880Z,101606.98
2018-02-19T06:57:23.249Z,101611.69
2018-02-19T06:59:51.638Z,101610.80
2018-02-19T07:02:20.020Z,101625.12
2018-02-19T07:04:48.699Z,101617.67
2018-02-19T07:07:17.095Z,101619.65
2018-02-19T07:09:45.503Z,101607.09
2018-02-19T07:12:14.026Z,101617.95
2018-02-19T07:14:42.409Z,101608.19
2018-02-19T07:17:10.816Z,101613.55
2018-02-19T07:19:40.210Z,101613.94
2018-02-19T07:22:08.581Z,101613.94
2018-02-19T07:24:36.937Z,101615.88
2018-02-19T07:27:05.314Z,101614.56
2018-02-19T07:29:33.664Z,101606.98
2018-02-19T07:32:02.432Z,101612.66
2018-02-19T07:34:30.813Z,101609.53
2018-02-19T07:36:59.585Z,101614.17
2018-02-19T07:39:28.486Z,101611.86
2018-02-19T07:41:57.265Z,101616.87
2018-02-19T07:44:25.649Z,101609.95
2018-02-19T07:46:54.019Z,101603.70
2018-02-19T07:49:22.385Z,101600.81
2018-02-19T07:51:51.800Z,101602.62
2018-02-19T07:54:20.177Z,101601.91
2018-02-19T07:56:48.533Z,101592.56
2018-02-19T07:59:16.902Z,101591.94
2018-02-19T08:01:45.253Z,101593.59
2018-02-19T08:04:13.635Z,101594.54
2018-02-19T08:06:42.514Z,101596.00
2018-02-19T08:09:10.956Z,101590.47
2018-02-19T08:11:39.336Z,101592.66
2018-02-19T08:14:07.811Z,101588.61
2018-02-19T08:16:36.222Z,101584.91
2018-02-19T08:19:04.587Z,101593.63
2018-02-19T08:21:32.951Z,101593.15
2018-02-19T08:24:01.341Z,101593.97
2018-02-19T08:26:29.691Z,101598.30
2018-02-19T08:28:58.044Z,101592.95
2018-02-19T08:31:26.800Z,101587.22
2018-02-19T08:33:55.268Z,101579.97
2018-02-19T08:36:23.642Z,101581.80
2018-02-19T08:38:53.067Z,101572.17
2018-02-19T08:41:21.459Z,101578.39
2018-02-19T08:43:50.242Z,101575.38
2018-02-19T08:46:18.705Z,101567.64
2018-02-19T08:48:47.091Z,101571.52
2018-02-19T08:51:15.632Z,101572.07
2018-02-19T08:53:44.007Z,101574.36
2018-02-19T08:56:12.381Z,101569.79
2018-02-19T08:58:40.733Z,101567.23
2018-02-19T09:01:09.904Z,101574.34
2018-02-19T09:03:38.276Z,101564.41
2018-02-19T09:06:06.654Z,101561.98
2018-02-19T09:08:35.039Z,101554.52
2018-02-19T09:11:03.393Z,101562.75
2018-02-19T09:13:31.795Z,101555.68
2018-02-19T09:16:00.160Z,101547.59
2018-02-19T09:18:28.552Z,101552.31
2018-02-19T09:20:56.912Z,101545.17
2018-02-19T09:23:25.398Z,101542.46
2018-02-19T09:25:53.834Z,101541.49
2018-02-19T09:28:22.257Z,101536.98
2018-02-19T09:30:51.045Z,101535.63
2018-02-19T09:33:19.425Z,101527.78
2018-02-19T09:35:47.840Z,101535.47
2018-02-19T09:38:16.596Z,101537.76
2018-02-19T09:40:44.964Z,101530.91
2018-02-19T09:43:13.357Z,101530.77
2018-02-19T09:45:41.724Z,101530.83
2018-02-19T09:48:10.136Z,101533.28
2018-02-19T09:50:38.692Z,101530.22
2018-02-19T09:53:07.080Z,101527.52
2018-02-19T09:55:35.440Z,101523.14
2018-02-19T09:58:03.824Z,101529.14
2018-02-19T10:00:32.199Z,101520.79
2018-02-19T10:03:00.609Z,101531.61
2018-02-19T10:05:29.017Z,101528.37
2018-02-19T10:07:57.459Z,101527.38
2018-02-19T10:10:25.816Z,101518.91
2018-02-19T10:12:54.179Z,101528.70
2018-02-19T10:15:22.577Z,101530.18
2018-02-19T10:17:50.938Z,101519.88
2018-02-19T10:20:19.309Z,101514.32
2018-02-19T10:22:47.703Z,101525.25
2018-02-19T10:25:16.064Z,101509.06
2018-02-19T10:27:44.451Z,101510.20
2018-02-19T10:30:12.860Z,101507.85
2018-02-19T10:32:41.933Z,101503.45
2018-02-19T10:35:10.308Z,101504.81
2018-02-19T10:37:38.673Z,101500.69
2018-02-19T10:40:07.077Z,101499.22
2018-02-19T10:42:35.436Z,101497.41
2018-02-19T10:45:03.810Z,101496.82
2018-02-19T10:47:32.229Z,101490.26
2018-02-19T10:50:00.607Z,101489.39
2018-02-19T10:52:28.977Z,101488.91
2018-02-19T10:54:57.354Z,101491.11
2018-02-19T10:57:25.733Z,101487.89
2018-02-19T10:59:54.108Z,101484.94
2018-02-19T11:02:23.037Z,101482.34
2018-02-19T11:04:51.411Z,101478.41
2018-02-19T11:07:20.194Z,101472.91
2018-02-19T11:09:48.577Z,101475.13
2018-02-19T11:12:16.936Z,101470.63
2018-02-19T11:14:45.314Z,101473.78
2018-02-19T11:17:13.691Z,101476.12
2018-02-19T11:19:42.055Z,101467.74
2018-02-19T11:22:10.470Z,101464.52
2018-02-19T11:24:38.835Z,101460.63
2018-02-19T11:27:07.312Z,101459.78
2018-02-19T11:29:35.700Z,101458.09
2018-02-19T11:32:04.080Z,101454.52
2018-02-19T11:34:32.451Z,101449.25
2018-02-19T11:37:00.957Z,101448.67
2018-02-19T11:39:29.324Z,101454.23
2018-02-19T11:41:57.686Z,101445.25
2018-02-19T11:44:26.081Z,101447.13
2018-02-19T11:46:54.447Z,101445.14
2018-02-19T11:49:22.908Z,101437.28
2018-02-19T11:51:51.302Z,101433.76
2018-02-19T11:54:19.692Z,101428.22
2018-02-19T11:56:48.073Z,101431.03
2018-02-19T11:59:16.436Z,101429.52
2018-02-19T12:01:44.814Z,101428.30
2018-02-19T12:04:13.196Z,101420.70
2018-02-19T12:06:41.571Z,101424.91
2018-02-19T12:09:09.949Z,101424.22
2018-02-19T12:11:38.337Z,101420.91
2018-02-19T12:14:06.707Z,101430.91
2018-02-19T12:16:35.073Z,101422.09
2018-02-19T12:19:03.440Z,101423.64
2018-02-19T12:21:31.810Z,101423.45
2018-02-19T12:24:00.196Z,101418.52
2018-02-19T12:26:28.560Z,101422.97
2018-02-19T12:28:56.920Z,101418.78
2018-02-19T12:31:25.693Z,101411.42
2018-02-19T12:33:54.055Z,101416.52
2018-02-19T12:36:22.424Z,101401.01
2018-02-19T12:38:50.800Z,101402.38
2018-02-19T12:41:20.207Z,101403.23
2018-02-19T12:43:48.571Z,101404.30
2018-02-19T12:46:16.941Z,101391.84
2018-02-19T12:48:45.300Z,101387.02
2018-02-19T12:51:13.670Z,101391.69
2018-02-19T12:53:42.452Z,101393.58
2018-02-19T12:56:11.200Z,101393.25
2018-02-19T12:58:39.568Z,101389.10
2018-02-19T13:01:07.928Z,101388.16
2018-02-19T13:03:36.300Z,101381.63
2018-02-19T13:06:04.665Z,101381.98
2018-02-19T13:08:33.421Z,101384.50
2018-02-19T13:11:01.792Z,101375.73
2018-02-19T13:13:30.170Z,101375.27
2018-02-19T13:15:58.550Z,101365.13
2018-02-19T13:18:26.912Z,101363.13
2018-02-19T13:20:55.277Z,101366.98
2018-02-19T13:23:23.653Z,101366.12
2018-02-19T13:25:52.016Z,101360.23
2018-02-19T13:28:20.363Z,101354.06
2018-02-19T13:30:49.141Z,101351.08
2018-02-19T13:33:17.604Z,101355.78
2018-02-19T13:35:45.957Z,101350.39
2018-02-19T13:38:14.359Z,101344.31
2018-02-19T13:40:42.713Z,101342.86
2018-02-19T13:43:11.068Z,101345.00
2018-02-19T13:45:40.384Z,101350.50
2018-02-19T13:48:08.749Z,101353.55
2018-02-19T13:50:37.128Z,101356.28
2018-02-19T13:53:05.490Z,101352.73
2018-02-19T13:55:34.264Z,101349.94
2018-02-19T13:58:02.644Z,101349.27
2018-02-19T14:00:31.003Z,101344.38
2018-02-19T14:02:59.368Z,101344.69
2018-02-19T14:05:27.749Z,101348.69
2018-02-19T14:07:56.181Z,101346.83
2018-02-19T14:10:24.936Z,101342.86
2018-02-19T14:12:53.321Z,101343.48
2018-02-19T14:15:21.680Z,101340.17
2018-02-19T14:17:50.047Z,101337.55
2018-02-19T14:20:18.421Z,101332.77
2018-02-19T14:22:46.785Z,101331.44
2018-02-19T14:25:15.224Z,101329.05
2018-02-19T14:27:43.989Z,101333.73
2018-02-19T14:30:12.378Z,101331.91
2018-02-19T14:32:42.232Z,101331.09
2018-02-19T14:35:10.601Z,101334.17
2018-02-19T14:37:39.371Z,101329.39
2018-02-19T14:40:07.745Z,101331.80
2018-02-19T14:42:36.123Z,101322.92
2018-02-19T14:45:04.476Z,101323.02
2018-02-19T14:47:32.837Z,101327.95
2018-02-19T14:50:01.221Z,101322.80
2018-02-19T14:52:29.593Z,101329.33
2018-02-19T14:54:57.980Z,101321.90
2018-02-19T14:57:26.341Z,101322.98
2018-02-19T14:59:54.732Z,101328.14
2018-02-19T15:02:23.098Z,101323.79
2018-02-19T15:04:51.471Z,101319.27
2018-02-19T15:07:19.865Z,101316.74
2018-02-19T15:09:48.233Z,101321.56
2018-02-19T15:12:16.585Z,101323.27
2018-02-19T15:14:45.344Z,101325.27
2018-02-19T15:17:13.712Z,101330.66
2018-02-19T15:19:42.108Z,101331.35
2018-02-19T15:22:10.504Z,101324.06
2018-02-19T15:24:38.864Z,101322.64
2018-02-19T15:27:07.252Z,101322.28
2018-02-19T15:29:35.643Z,101320.76
2018-02-19T15:32:04.415Z,101321.78
2018-02-19T15:34:32.813Z,101315.45
2018-02-19T15:37:01.560Z,101306.53
2018-02-19T15:39:29.924Z,101314.91
2018-02-19T15:41:58.322Z,101309.04
2018-02-19T15:44:26.712Z,101311.60
2018-02-19T15:46:55.078Z,101308.37
2018-02-19T15:49:23.518Z,101308.34
2018-02-19T15:51:51.845Z,101314.05
2018-02-19T15:54:20.226Z,101307.66
2018-02-19T15:56:48.589Z,101313.91
2018-02-19T15:59:16.948Z,101306.92
2018-02-19T16:01:45.335Z,101307.37
2018-02-19T16:04:13.698Z,101302.22
2018-02-19T16:06:42.059Z,101312.89
2018-02-19T16:09:10.432Z,101313.59
2018-02-19T16:11:39.202Z,101312.80
2018-02-19T16:14:07.564Z,101313.45
2018-02-19T16:16:36.267Z,101311.90
2018-02-19T16:19:04.661Z,101313.91
2018-02-19T16:21:33.413Z,101314.14
2018-02-19T16:24:01.878Z,101310.05
2018-02-19T16:26:30.258Z,101317.80
2018-02-19T16:28:58.636Z,101320.92
2018-02-19T16:31:27.011Z,101319.34
2018-02-19T16:33:55.389Z,101311.33
2018-02-19T16:36:23.809Z,101317.78
2018-02-19T16:38:52.157Z,101320.48
2018-02-19T16:41:20.532Z,101319.22
2018-02-19T16:43:48.888Z,101325.55
2018-02-19T16:46:17.257Z,101318.89
2018-02-19T16:48:45.637Z,101314.16
2018-02-19T16:51:13.984Z,101312.27
2018-02-19T16:53:42.743Z,101309.45
2018-02-19T16:56:11.234Z,101314.63
2018-02-19T16:58:39.605Z,101321.44
2018-02-19T17:01:07.969Z,101318.75
2018-02-19T17:03:37.257Z,101315.47
2018-02-19T17:06:05.651Z,101314.45
2018-02-19T17:08:34.002Z,101317.83
2018-02-19T17:11:02.404Z,101312.75
2018-02-19T17:13:30.784Z,101316.08
2018-02-19T17:15:59.144Z,101319.34
2018-02-19T17:18:27.624Z,101318.05
2018-02-19T17:20:56.008Z,101309.33
2018-02-19T17:23:24.402Z,101313.28
2018-02-19T17:25:52.862Z,101320.83
2018-02-19T17:28:21.237Z,101311.60
2018-02-19T17:30:49.608Z,101316.19
2018-02-19T17:33:18.020Z,101316.33
2018-02-19T17:35:51.228Z,101315.83
2018-02-19T17:38:19.602Z,101309.33
2018-02-19T17:40:47.952Z,101312.55
2018-02-19T17:43:16.320Z,101318.13
2018-02-19T17:45:44.723Z,101320.86
2018-02-19T17:48:13.116Z,101319.61
2018-02-19T17:50:41.462Z,101317.45
2018-02-19T17:53:09.843Z,101315.05
2018-02-19T17:55:38.195Z,101321.70
2018-02-19T17:58:06.944Z,101322.39
2018-02-19T18:00:35.328Z,101319.97
2018-02-19T18:03:03.683Z,101327.91
2018-02-19T18:05:32.036Z,101329.81
2018-02-19T18:08:00.427Z,101334.70
2018-02-19T18:10:28.784Z,101325.52
2018-02-19T18:12:57.144Z,101326.02
2018-02-19T18:15:25.537Z,101327.84
2018-02-19T18:17:54.346Z,101318.37
2018-02-19T18:20:22.797Z,101320.57
2018-02-19T18:22:51.655Z,101321.50
2018-02-19T18:25:20.054Z,101319.25
2018-02-19T18:27:48.424Z,101321.50
2018-02-19T18:30:16.905Z,101329.17
2018-02-19T18:32:45.272Z,101326.20
2018-02-19T18:35:13.648Z,101326.58
2018-02-19T18:37:42.040Z,101325.64
2018-02-19T18:40:10.522Z,101315.73
2018-02-19T18:42:39.063Z,101319.88
2018-02-19T18:45:07.428Z,101317.91
2018-02-19T18:47:35.815Z,101318.73
2018-02-19T18:50:04.227Z,101326.53
2018-02-19T18:52:32.575Z,101321.21
2018-02-19T18:55:00.975Z,101318.92
2018-02-19T18:57:30.211Z,101318.88
2018-02-19T18:59:59.064Z,101325.06
2018-02-19T19:02:27.425Z,101330.07
2018-02-19T19:04:55.821Z,101325.97
2018-02-19T19:10:58.573Z,101327.21
2018-02-19T19:13:27.005Z,101323.81
2018-02-19T19:15:55.372Z,101324.58
2018-02-19T19:18:23.761Z,101331.28
2018-02-19T19:20:52.536Z,101322.23
2018-02-19T19:23:20.948Z,101326.20
2018-02-19T19:25:49.314Z,101325.44
2018-02-19T19:28:17.663Z,101326.25
2018-02-19T19:30:46.077Z,101324.54
2018-02-19T19:33:14.572Z,101324.07
2018-02-19T19:35:42.935Z,101330.95
2018-02-19T19:38:11.309Z,101321.05
2018-02-19T19:40:39.673Z,101324.66
2018-02-19T19:43:08.045Z,101316.53
2018-02-19T19:45:36.411Z,101319.68
2018-02-19T19:48:04.769Z,101316.88
2018-02-19T19:50:33.595Z,101311.97
2018-02-19T19:53:01.959Z,101317.19
2018-02-19T19:55:30.341Z,101312.66
2018-02-19T19:57:58.717Z,101315.02
2018-02-19T20:00:27.082Z,101308.12
2018-02-19T20:02:55.925Z,101297.68
2018-02-19T20:05:24.424Z,101301.09
2018-02-19T20:07:52.783Z,101295.83
2018-02-19T20:10:21.230Z,101298.02
2018-02-19T20:12:49.586Z,101302.22
2018-02-19T20:15:18.326Z,101299.17
2018-02-19T20:17:46.696Z,101303.71
2018-02-19T20:20:15.061Z,101297.11
2018-02-19T20:22:43.466Z,101300.28
2018-02-19T20:25:11.825Z,101293.61
2018-02-19T20:27:40.173Z,101299.56
2018-02-19T20:30:08.592Z,101293.49
2018-02-19T20:32:36.953Z,101288.89
2018-02-19T20:35:05.325Z,101293.17
2018-02-19T20:37:33.681Z,101298.19
2018-02-19T20:40:02.424Z,101296.50
2018-02-19T20:42:30.803Z,101297.50
2018-02-19T20:44:59.164Z,101290.06
2018-02-19T20:47:27.508Z,101291.37
2018-02-19T20:49:56.273Z,101298.16
2018-02-19T20:52:25.029Z,101284.02
2018-02-19T20:54:53.596Z,101287.66
2018-02-19T20:57:21.992Z,101294.27
2018-02-19T20:59:50.369Z,101292.90
2018-02-19T21:02:18.720Z,101287.70
2018-02-19T21:04:47.320Z,101292.98
2018-02-19T21:07:15.679Z,101289.55
2018-02-19T21:09:44.090Z,101288.38
2018-02-19T21:12:12.454Z,101285.58
2018-02-19T21:14:40.832Z,101287.06
2018-02-19T21:17:09.203Z,101289.55
2018-02-19T21:19:37.573Z,101290.27
2018-02-19T21:22:05.927Z,101283.67
2018-02-19T21:24:34.677Z,101287.78
2018-02-19T21:27:03.056Z,101292.65
2018-02-19T21:29:31.395Z,101286.10
2018-02-19T21:31:59.754Z,101286.20
2018-02-19T21:34:28.668Z,101286.66
2018-02-19T21:36:57.050Z,101279.36
2018-02-19T21:39:25.428Z,101283.30
2018-02-19T21:41:53.886Z,101284.71
2018-02-19T21:44:22.671Z,101277.95
2018-02-19T21:46:51.412Z,101282.89
2018-02-19T21:49:19.768Z,101281.52
2018-02-19T21:51:48.175Z,101282.73
2018-02-19T21:54:16.972Z,101284.44
2018-02-19T21:56:45.332Z,101284.38
2018-02-19T21:59:13.724Z,101288.67
2018-02-19T22:01:42.096Z,101285.16
2018-02-19T22:04:10.463Z,101284.05
2018-02-19T22:06:38.832Z,101281.89
2018-02-19T22:09:07.196Z,101277.48
2018-02-19T22:11:35.550Z,101286.17
2018-02-19T22:14:04.316Z,101287.83
2018-02-19T22:16:32.771Z,101279.42
2018-02-19T22:19:01.161Z,101280.87
2018-02-19T22:21:29.533Z,101276.78
2018-02-19T22:23:57.896Z,101280.43
2018-02-19T22:26:26.256Z,101273.37
2018-02-19T22:28:54.614Z,101280.66
2018-02-19T22:31:23.473Z,101275.62
2018-02-19T22:33:51.832Z,101274.73
2018-02-19T22:36:20.208Z,101282.60
2018-02-19T22:38:48.580Z,101282.66
2018-02-19T22:41:16.936Z,101283.70
2018-02-19T22:43:45.347Z,101286.91
2018-02-19T22:46:13.896Z,101287.68
2018-02-19T22:48:42.276Z,101286.77
2018-02-19T22:51:10.639Z,101286.17
2018-02-19T22:53:39.412Z,101291.13
2018-02-19T22:56:07.808Z,101289.34
2018-02-19T22:58:36.601Z,101291.75
2018-02-19T23:01:04.933Z,101299.17
2018-02-19T23:03:33.299Z,101295.31
2018-02-19T23:06:01.656Z,101283.98
2018-02-19T23:08:30.023Z,101288.19
2018-02-19T23:10:58.373Z,101296.67
2018-02-19T23:13:28.012Z,101293.23
2018-02-19T23:15:56.421Z,101289.47
2018-02-19T23:18:24.923Z,101279.02
2018-02-19T23:20:53.376Z,101282.44
2018-02-19T23:23:21.769Z,101290.55
2018-02-19T23:25:50.128Z,101283.06
2018-02-19T23:28:18.555Z,101277.33
2018-02-19T23:30:47.407Z,101274.72
2018-02-19T23:33:15.804Z,101276.39
2018-02-19T23:35:44.177Z,101278.17
2018-02-19T23:38:12.602Z,101273.20
2018-02-19T23:40:41.452Z,101278.07
2018-02-19T23:43:09.837Z,101278.14
2018-02-19T23:45:38.309Z,101270.85
2018-02-19T23:48:06.672Z,101271.63
2018-02-19T23:50:35.025Z,101272.52
2018-02-19T23:53:03.403Z,101273.58
2018-02-19T23:55:32.271Z,101277.05
2018-02-19T23:58:01.784Z,101277.95
